Condor Express — WDG7544 — position and weather

sailwx.info

Track history (hours):
 
Tides and Currents Weather Stations Pressure Air Temp Water Temp Dewpoint Dewpoint Depression Visibility Wind Speed Wind Dir Waves Ship Positions

Condor Express

Owner: H & M Landing Inc, Santa Barbara, CA. More information available from US FCC via Universal Licensing System and Coast Guard Vessel Documentation Center.

Last reported at 2017-Sep-24 13:42 UTC. Time now 2017-Sep-24 14:10 UTC.
Position N 34°24' W 119°42'.

Type: Ship. MMSI: 367568350.

Date/timePositionNaut miles runAvg speedWind from/ knotsBaromVisibWave heightAir tempDewpointWater temp
2017-Sep-24 13:42N 34°24' W 119°42'0 0.0
2017-Sep-24 13:12N 34°24' W 119°42'0 0.0
2017-Sep-24 12:51N 34°24' W 119°42'0 0.0
2017-Sep-24 12:15N 34°24' W 119°42'0 0.0
2017-Sep-24 11:48N 34°24' W 119°42'0 0.0
2017-Sep-24 11:24N 34°24' W 119°42'0 0.0
2017-Sep-24 10:21N 34°24' W 119°42'0 0.0
2017-Sep-24 09:21N 34°24' W 119°42'0 0.0
2017-Sep-24 07:39N 34°24' W 119°42'0 0.0
2017-Sep-24 06:48N 34°24' W 119°42'0 0.0
2017-Sep-24 06:12N 34°24' W 119°42'0 0.0
2017-Sep-24 05:54N 34°24' W 119°42'0 0.0
2017-Sep-24 01:06N 34°24' W 119°42'2 6.8
2017-Sep-24 00:45N 34°23' W 119°39'2 1.7
2017-Sep-23 23:23N 34°24' W 119°41'0 0.1
2017-Sep-23 22:22N 34°24' W 119°42'0 0.0
2017-Sep-23 21:38N 34°24' W 119°42'411.6
2017-Sep-23 21:15N 34°21' W 119°44'416.1
2017-Sep-23 20:58N 34°17' W 119°47'2 3.1
2017-Sep-23 20:27N 34°15' W 119°46'817.4
2017-Sep-23 20:00N 34°08' W 119°49'18 0.4
2017-Sep-21 21:17N 34°24' W 119°42'7 8.8
2017-Sep-21 20:28N 34°18' W 119°46'4 6.8
2017-Sep-21 19:52N 34°20' W 119°50'4 9.0
2017-Sep-21 19:27N 34°22' W 119°55'1 1.3
2017-Sep-21 19:00N 34°22' W 119°54'2 3.9
2017-Sep-21 18:30N 34°21' W 119°52'5 9.1
2017-Sep-21 18:00N 34°23' W 119°47'3 6.5
2017-Sep-21 17:29N 34°23' W 119°43'2 1.3
2017-Sep-21 16:07N 34°24' W 119°42'0 0.0
2017-Sep-21 15:52N 34°24' W 119°42'0 0.0
2017-Sep-21 05:07N 34°24' W 119°42'0 0.0
2017-Sep-21 04:31N 34°24' W 119°42'0 0.0
2017-Sep-21 03:01N 34°24' W 119°42'0 0.0
2017-Sep-21 00:13N 34°24' W 119°42'0 0.0
2017-Sep-20 22:32N 34°24' W 119°42'2 1.6
2017-Sep-20 21:30N 34°23' W 119°42'1220.4
2017-Sep-20 20:54N 34°12' W 119°48'4 8.7
2017-Sep-20 20:25N 34°08' W 119°50'4 8.6
2017-Sep-20 19:57N 34°04' W 119°52'611.7
2017-Sep-20 19:26N 34°10' W 119°52'511.3
2017-Sep-20 18:59N 34°15' W 119°48'7 5.7
2017-Sep-20 17:43N 34°20' W 119°43'3 7.8
2017-Sep-20 17:24N 34°23' W 119°43'2 2.8
2017-Sep-20 16:42N 34°24' W 119°42'0 0.0
2017-Sep-20 16:24N 34°24' W 119°42'0 0.0
2017-Sep-20 15:54N 34°24' W 119°42'0 0.0
2017-Sep-20 10:06N 34°24' W 119°42'0 0.0
2017-Sep-20 09:36N 34°24' W 119°42'0 0.0
2017-Sep-20 09:30N 34°24' W 119°42'0 0.0
2017-Sep-20 02:27N 34°24' W 119°42'0 0.0
2017-Sep-20 00:30N 34°24' W 119°42'0 0.0
2017-Sep-19 22:03N 34°24' W 119°42'0 0.0
2017-Sep-19 21:54N 34°24' W 119°42'0 0.5
2017-Sep-19 21:26N 34°25' W 119°41'915.3
2017-Sep-19 20:52N 34°17' W 119°46'5 9.7
2017-Sep-19 20:22N 34°12' W 119°47'513.6
2017-Sep-19 19:59N 34°07' W 119°47'6 5.8
2017-Sep-19 19:00N 34°13' W 119°48'611.3
2017-Sep-19 18:30N 34°18' W 119°45'1 1.9
2017-Sep-19 17:50N 34°19' W 119°45'3 7.2
2017-Sep-19 17:27N 34°21' W 119°44'4 0.2
2017-Sep-18 21:26N 34°24' W 119°42'715.8
2017-Sep-18 21:00N 34°18' W 119°44'1017.0
2017-Sep-18 20:24N 34°08' W 119°48'2 5.9
2017-Sep-18 20:00N 34°07' W 119°50'4 7.5
2017-Sep-18 19:30N 34°11' W 119°51'4 8.6
2017-Sep-18 19:00N 34°15' W 119°51'2 3.2
2017-Sep-18 18:27N 34°17' W 119°50'5 8.7
2017-Sep-18 17:55N 34°20' W 119°46'3 5.0
2017-Sep-18 17:25N 34°22' W 119°45'3 0.9
2017-Sep-18 13:41N 34°24' W 119°42'0 0.0
2017-Sep-18 13:17N 34°24' W 119°42'0 0.0
2017-Sep-18 12:41N 34°24' W 119°42'0 0.0
2017-Sep-18 12:23N 34°24' W 119°42'0 0.0
2017-Sep-18 11:56N 34°24' W 119°42'0 0.0
2017-Sep-18 09:35N 34°24' W 119°42'0 0.0
2017-Sep-18 09:17N 34°24' W 119°42'0 0.0
2017-Sep-18 08:50N 34°24' W 119°42'0 0.0
2017-Sep-18 08:29N 34°24' W 119°42'0 0.0
2017-Sep-17 21:30N 34°25' W 119°41'1420.1
2017-Sep-17 20:49N 34°14' W 119°52'2 5.1
2017-Sep-17 20:21N 34°13' W 119°55'1 2.8
2017-Sep-17 20:00N 34°13' W 119°53'3 5.1
2017-Sep-17 19:26N 34°16' W 119°54'2 3.2
2017-Sep-17 18:53N 34°17' W 119°53'4 9.2
2017-Sep-17 18:27N 34°15' W 119°49'3 6.5
2017-Sep-17 17:59N 34°17' W 119°46'5 9.5
2017-Sep-17 17:27N 34°22' W 119°45'4 0.3
2017-Sep-17 03:41N 34°24' W 119°42'0 0.8
2017-Sep-17 03:19N 34°24' W 119°41'1 1.5
2017-Sep-17 02:56N 34°24' W 119°41'1 1.4
2017-Sep-17 02:29N 34°24' W 119°41'1 2.2
2017-Sep-17 01:50N 34°25' W 119°40'1 2.2
2017-Sep-17 01:24N 34°24' W 119°41'0 1.1
2017-Sep-17 00:58N 34°24' W 119°42'0 0.1
2017-Sep-16 21:35N 34°24' W 119°41'317.8
2017-Sep-16 21:24N 34°22' W 119°44'511.8
2017-Sep-16 21:00N 34°19' W 119°49'2 4.0
2017-Sep-16 20:28N 34°18' W 119°47'3 6.2
2017-Sep-16 20:00N 34°15' W 119°46'3 5.0
2017-Sep-16 19:25N 34°13' W 119°47'4 4.6
2017-Sep-16 18:32N 34°17' W 119°48'2 4.7
2017-Sep-16 18:12N 34°18' W 119°49'310.6
2017-Sep-16 17:54N 34°19' W 119°45'3 5.9
2017-Sep-16 17:26N 34°21' W 119°43'4 7.8
2017-Sep-16 16:58N 34°24' W 119°42'0 0.0
2017-Sep-16 09:49N 34°24' W 119°42'0 0.0
2017-Sep-16 08:31N 34°24' W 119°42'0 0.0
2017-Sep-15 21:37N 34°24' W 119°41'219.7
2017-Sep-15 21:30N 34°22' W 119°41'1014.2
2017-Sep-15 20:48N 34°12' W 119°45'2 5.5
2017-Sep-15 20:28N 34°11' W 119°46'816.1
2017-Sep-15 19:58N 34°04' W 119°50'3 6.2
2017-Sep-15 19:29N 34°07' W 119°50'712.0
2017-Sep-15 18:52N 34°14' W 119°47'3 6.3
2017-Sep-15 18:24N 34°16' W 119°46'1 2.1
2017-Sep-15 17:57N 34°17' W 119°45'3 6.9
2017-Sep-15 17:28N 34°20' W 119°43'4 2.3
2017-Sep-15 15:33N 34°24' W 119°42'0 0.1
2017-Sep-15 12:59N 34°24' W 119°42'0 0.0
2017-Sep-15 12:14N 34°24' W 119°42'0 0.0
2017-Sep-15 11:47N 34°24' W 119°42'0 0.0
2017-Sep-15 09:56N 34°24' W 119°42'0 0.0
2017-Sep-14 21:50N 34°25' W 119°41'918.7
2017-Sep-14 21:22N 34°16' W 119°45'6 9.8
2017-Sep-14 20:48N 34°11' W 119°47'815.7
2017-Sep-14 20:19N 34°04' W 119°51'3 6.8
2017-Sep-14 19:57N 34°07' W 119°51'817.3
2017-Sep-14 19:27N 34°14' W 119°46'2 4.1
2017-Sep-14 18:54N 34°16' W 119°45'1 1.7
2017-Sep-14 18:29N 34°17' W 119°45'2 3.4
2017-Sep-14 17:57N 34°18' W 119°45'  
Track history (hours):
 
Tides and Currents Weather Stations Pressure Air Temp Water Temp Dewpoint Dewpoint Depression Visibility Wind Speed Wind Dir Waves Ship Positions

Condor Express

Owner: H & M Landing Inc, Santa Barbara, CA. More information available from US FCC via Universal Licensing System and Coast Guard Vessel Documentation Center.

Last reported at 2017-Sep-24 13:42 UTC. Time now 2017-Sep-24 14:10 UTC.
Position N 34°24' W 119°42'.

Type: Ship. MMSI: 367568350.

Date/timePositionNaut miles runAvg speedWind from/ knotsBaromVisibWave heightAir tempDewpointWater temp
2017-Sep-24 13:42N 34°24' W 119°42'0 0.0
2017-Sep-24 13:12N 34°24' W 119°42'0 0.0
2017-Sep-24 12:51N 34°24' W 119°42'0 0.0
2017-Sep-24 12:15N 34°24' W 119°42'0 0.0
2017-Sep-24 11:48N 34°24' W 119°42'0 0.0
2017-Sep-24 11:24N 34°24' W 119°42'0 0.0
2017-Sep-24 10:21N 34°24' W 119°42'0 0.0
2017-Sep-24 09:21N 34°24' W 119°42'0 0.0
2017-Sep-24 07:39N 34°24' W 119°42'0 0.0
2017-Sep-24 06:48N 34°24' W 119°42'0 0.0
2017-Sep-24 06:12N 34°24' W 119°42'0 0.0
2017-Sep-24 05:54N 34°24' W 119°42'0 0.0
2017-Sep-24 01:06N 34°24' W 119°42'2 6.8
2017-Sep-24 00:45N 34°23' W 119°39'2 1.7
2017-Sep-23 23:23N 34°24' W 119°41'0 0.1
2017-Sep-23 22:22N 34°24' W 119°42'0 0.0
2017-Sep-23 21:38N 34°24' W 119°42'411.6
2017-Sep-23 21:15N 34°21' W 119°44'416.1
2017-Sep-23 20:58N 34°17' W 119°47'2 3.1
2017-Sep-23 20:27N 34°15' W 119°46'817.4
2017-Sep-23 20:00N 34°08' W 119°49'18 0.4
2017-Sep-21 21:17N 34°24' W 119°42'7 8.8
2017-Sep-21 20:28N 34°18' W 119°46'4 6.8
2017-Sep-21 19:52N 34°20' W 119°50'4 9.0
2017-Sep-21 19:27N 34°22' W 119°55'1 1.3
2017-Sep-21 19:00N 34°22' W 119°54'2 3.9
2017-Sep-21 18:30N 34°21' W 119°52'5 9.1
2017-Sep-21 18:00N 34°23' W 119°47'3 6.5
2017-Sep-21 17:29N 34°23' W 119°43'2 1.3
2017-Sep-21 16:07N 34°24' W 119°42'0 0.0
2017-Sep-21 15:52N 34°24' W 119°42'0 0.0
2017-Sep-21 05:07N 34°24' W 119°42'0 0.0
2017-Sep-21 04:31N 34°24' W 119°42'0 0.0
2017-Sep-21 03:01N 34°24' W 119°42'0 0.0
2017-Sep-21 00:13N 34°24' W 119°42'0 0.0
2017-Sep-20 22:32N 34°24' W 119°42'2 1.6
2017-Sep-20 21:30N 34°23' W 119°42'1220.4
2017-Sep-20 20:54N 34°12' W 119°48'4 8.7
2017-Sep-20 20:25N 34°08' W 119°50'4 8.6
2017-Sep-20 19:57N 34°04' W 119°52'611.7
2017-Sep-20 19:26N 34°10' W 119°52'511.3
2017-Sep-20 18:59N 34°15' W 119°48'7 5.7
2017-Sep-20 17:43N 34°20' W 119°43'3 7.8
2017-Sep-20 17:24N 34°23' W 119°43'2 2.8
2017-Sep-20 16:42N 34°24' W 119°42'0 0.0
2017-Sep-20 16:24N 34°24' W 119°42'0 0.0
2017-Sep-20 15:54N 34°24' W 119°42'0 0.0
2017-Sep-20 10:06N 34°24' W 119°42'0 0.0
2017-Sep-20 09:36N 34°24' W 119°42'0 0.0
2017-Sep-20 09:30N 34°24' W 119°42'0 0.0
2017-Sep-20 02:27N 34°24' W 119°42'0 0.0
2017-Sep-20 00:30N 34°24' W 119°42'0 0.0
2017-Sep-19 22:03N 34°24' W 119°42'0 0.0
2017-Sep-19 21:54N 34°24' W 119°42'0 0.5
2017-Sep-19 21:26N 34°25' W 119°41'915.3
2017-Sep-19 20:52N 34°17' W 119°46'5 9.7
2017-Sep-19 20:22N 34°12' W 119°47'513.6
2017-Sep-19 19:59N 34°07' W 119°47'6 5.8
2017-Sep-19 19:00N 34°13' W 119°48'611.3
2017-Sep-19 18:30N 34°18' W 119°45'1 1.9
2017-Sep-19 17:50N 34°19' W 119°45'3 7.2
2017-Sep-19 17:27N 34°21' W 119°44'4 0.2
2017-Sep-18 21:26N 34°24' W 119°42'715.8
2017-Sep-18 21:00N 34°18' W 119°44'1017.0
2017-Sep-18 20:24N 34°08' W 119°48'2 5.9
2017-Sep-18 20:00N 34°07' W 119°50'4 7.5
2017-Sep-18 19:30N 34°11' W 119°51'4 8.6
2017-Sep-18 19:00N 34°15' W 119°51'2 3.2
2017-Sep-18 18:27N 34°17' W 119°50'5 8.7
2017-Sep-18 17:55N 34°20' W 119°46'3 5.0
2017-Sep-18 17:25N 34°22' W 119°45'3 0.9
2017-Sep-18 13:41N 34°24' W 119°42'0 0.0
2017-Sep-18 13:17N 34°24' W 119°42'0 0.0
2017-Sep-18 12:41N 34°24' W 119°42'0 0.0
2017-Sep-18 12:23N 34°24' W 119°42'0 0.0
2017-Sep-18 11:56N 34°24' W 119°42'0 0.0
2017-Sep-18 09:35N 34°24' W 119°42'0 0.0
2017-Sep-18 09:17N 34°24' W 119°42'0 0.0
2017-Sep-18 08:50N 34°24' W 119°42'0 0.0
2017-Sep-18 08:29N 34°24' W 119°42'0 0.0
2017-Sep-17 21:30N 34°25' W 119°41'1420.1
2017-Sep-17 20:49N 34°14' W 119°52'2 5.1
2017-Sep-17 20:21N 34°13' W 119°55'1 2.8
2017-Sep-17 20:00N 34°13' W 119°53'3 5.1
2017-Sep-17 19:26N 34°16' W 119°54'2 3.2
2017-Sep-17 18:53N 34°17' W 119°53'4 9.2
2017-Sep-17 18:27N 34°15' W 119°49'3 6.5
2017-Sep-17 17:59N 34°17' W 119°46'5 9.5
2017-Sep-17 17:27N 34°22' W 119°45'4 0.3
2017-Sep-17 03:41N 34°24' W 119°42'0 0.8
2017-Sep-17 03:19N 34°24' W 119°41'1 1.5
2017-Sep-17 02:56N 34°24' W 119°41'1 1.4
2017-Sep-17 02:29N 34°24' W 119°41'1 2.2
2017-Sep-17 01:50N 34°25' W 119°40'1 2.2
2017-Sep-17 01:24N 34°24' W 119°41'0 1.1
2017-Sep-17 00:58N 34°24' W 119°42'0 0.1
2017-Sep-16 21:35N 34°24' W 119°41'317.8
2017-Sep-16 21:24N 34°22' W 119°44'511.8
2017-Sep-16 21:00N 34°19' W 119°49'2 4.0
2017-Sep-16 20:28N 34°18' W 119°47'3 6.2
2017-Sep-16 20:00N 34°15' W 119°46'3 5.0
2017-Sep-16 19:25N 34°13' W 119°47'4 4.6
2017-Sep-16 18:32N 34°17' W 119°48'2 4.7
2017-Sep-16 18:12N 34°18' W 119°49'310.6
2017-Sep-16 17:54N 34°19' W 119°45'3 5.9
2017-Sep-16 17:26N 34°21' W 119°43'4 7.8
2017-Sep-16 16:58N 34°24' W 119°42'0 0.0
2017-Sep-16 09:49N 34°24' W 119°42'0 0.0
2017-Sep-16 08:31N 34°24' W 119°42'0 0.0
2017-Sep-15 21:37N 34°24' W 119°41'219.7
2017-Sep-15 21:30N 34°22' W 119°41'1014.2
2017-Sep-15 20:48N 34°12' W 119°45'2 5.5
2017-Sep-15 20:28N 34°11' W 119°46'816.1
2017-Sep-15 19:58N 34°04' W 119°50'3 6.2
2017-Sep-15 19:29N 34°07' W 119°50'712.0
2017-Sep-15 18:52N 34°14' W 119°47'3 6.3
2017-Sep-15 18:24N 34°16' W 119°46'1 2.1
2017-Sep-15 17:57N 34°17' W 119°45'3 6.9
2017-Sep-15 17:28N 34°20' W 119°43'4 2.3
2017-Sep-15 15:33N 34°24' W 119°42'0 0.1
2017-Sep-15 12:59N 34°24' W 119°42'0 0.0
2017-Sep-15 12:14N 34°24' W 119°42'0 0.0
2017-Sep-15 11:47N 34°24' W 119°42'0 0.0
2017-Sep-15 09:56N 34°24' W 119°42'0 0.0
2017-Sep-14 21:50N 34°25' W 119°41'918.7
2017-Sep-14 21:22N 34°16' W 119°45'6 9.8
2017-Sep-14 20:48N 34°11' W 119°47'815.7
2017-Sep-14 20:19N 34°04' W 119°51'3 6.8
2017-Sep-14 19:57N 34°07' W 119°51'817.3
2017-Sep-14 19:27N 34°14' W 119°46'2 4.1
2017-Sep-14 18:54N 34°16' W 119°45'1 1.7
2017-Sep-14 18:29N 34°17' W 119°45'2 3.4
2017-Sep-14 17:57N 34°18' W 119°45'  

Dump ship's entire track history